Coosaw, South Carolina
Current Conditions -  °F | °C
As of 6:56 AM on Monday 26 Jan 2015 (Local Time) from KNBC Reporting Station
Few Clouds Few Clouds  
Wind Chill: 43°   Ceiling: Unl
Heat Index: 47°   Visibility: 10mi
Dew Point: 44°   Wind: 9mph
Humidity: 90%   Direction: 230°SW
Pressure: 29.72"   Gusts: NA
Location:  32.5229°N, 80.7459°W
Report Text: KNBC 261156Z 23008KT 10SM FEW250 08/07 A2972 RMK AO2 SLP065 T00830067 10111 20083 56006
Loading
Personal Weather Stations






























Interactive Weather Map New forecast layout! Learn more

10-Day Weather Forecast

Advertisements
Track Severe Weather on mobile